Boston, Massachusetts
Current Conditions -  °F | °C
As of 10:54 AM on Thursday 29 Jan 2015 (Local Time) from KBOS Reporting Station
Few Clouds Few Clouds  
Wind Chill: 28°   Ceiling: Unl
Heat Index: 28°   Visibility: 10mi
Dew Point:   Wind: 0mph
Humidity: 39%   Direction: NA
Pressure: 30.32"   Gusts: NA
Location:  42.36°N, 71.06°W
Report Text: KBOS 291554Z 00000KT 10SM FEW250 M02/M14 A3032 RMK AO2 SLP264 T10221144 $
Loading
Personal Weather Stations






























Interactive Weather Map New forecast layout! Learn more

10-Day Weather Forecast

Advertisements
Track Severe Weather on mobile